Glencross, South Dakota
Current Conditions -  °F | °C
As of 3:52 AM on Saturday 20 Dec 2014 (Local Time) from KMBG Reporting Station
Clear Clear  
Wind Chill: 10°   Ceiling: Unl
Heat Index: 18°   Visibility: 8mi
Dew Point: 15°   Wind: 6mph
Humidity: 88%   Direction: 120°ESE
Pressure: 29.91"   Gusts: NA
Location:  45.45°N, 100.92°W
Report Text: KMBG 201052Z AUTO 12005KT 8SM CLR M08/M09 A2991 RMK AO2 SLP154 T10781094
Loading
Personal Weather Stations






























Interactive Weather Map New forecast layout! Learn more

10-Day Weather Forecast

Advertisements
Track Severe Weather on mobile